createdAt,value
2019-03-23T00:00:26.972Z,10.20
2019-03-23T00:02:55.958Z,10.20
2019-03-23T00:05:25.854Z,10.40
2019-03-23T00:07:54.748Z,10.30
2019-03-23T00:10:23.916Z,10.30
2019-03-23T00:12:53.214Z,10.30
2019-03-23T00:15:22.151Z,10.30
2019-03-23T00:17:51.078Z,10.50
2019-03-23T00:20:20.023Z,10.60
2019-03-23T00:22:48.893Z,10.60
2019-03-23T00:26:10.667Z,10.70
2019-03-23T00:28:39.567Z,10.50
2019-03-23T00:31:08.344Z,10.10
2019-03-23T00:33:37.218Z,10.10
2019-03-23T00:36:06.021Z,10.30
2019-03-23T00:38:34.794Z,10.30
2019-03-23T00:41:04.535Z,10.30
2019-03-23T00:43:33.440Z,9.90
2019-03-23T00:46:02.446Z,9.80
2019-03-23T00:48:31.306Z,10.10
2019-03-23T00:51:00.111Z,10.10
2019-03-23T00:53:28.967Z,10.00
2019-03-23T00:56:00.580Z,9.80
2019-03-23T00:58:29.732Z,9.30
2019-03-23T01:01:00.861Z,9.30
2019-03-23T01:03:29.904Z,9.30
2019-03-23T01:05:58.789Z,9.50
2019-03-23T01:08:27.776Z,9.30
2019-03-23T01:10:56.633Z,8.70
2019-03-23T01:13:25.425Z,8.20
2019-03-23T01:15:54.186Z,8.70
2019-03-23T01:18:23.328Z,8.90
2019-03-23T01:20:52.110Z,9.20
2019-03-23T01:23:20.872Z,9.20
2019-03-23T01:25:49.773Z,9.50
2019-03-23T01:28:18.947Z,9.40
2019-03-23T01:30:48.297Z,9.20
2019-03-23T01:33:17.209Z,9.40
2019-03-23T01:35:46.050Z,9.70
2019-03-23T01:38:14.822Z,9.70
2019-03-23T01:40:43.599Z,9.60
2019-03-23T01:43:12.357Z,9.50
2019-03-23T01:45:41.274Z,9.40
2019-03-23T01:48:10.291Z,9.40
2019-03-23T01:50:39.070Z,9.50
2019-03-23T01:53:08.663Z,9.20
2019-03-23T01:55:37.360Z,9.50
2019-03-23T01:58:06.235Z,9.20
2019-03-23T02:00:35.057Z,9.30
2019-03-23T02:03:03.901Z,9.30
2019-03-23T02:05:32.692Z,9.30
2019-03-23T02:08:01.508Z,9.10
2019-03-23T02:10:31.644Z,9.40
2019-03-23T02:13:00.408Z,9.30
2019-03-23T02:15:29.098Z,9.20
2019-03-23T02:17:57.910Z,8.90
2019-03-23T02:20:26.764Z,8.90
2019-03-23T02:22:55.565Z,9.10
2019-03-23T02:25:24.444Z,9.00
2019-03-23T02:27:53.283Z,8.90
2019-03-23T02:30:22.035Z,8.90
2019-03-23T02:32:50.964Z,8.80
2019-03-23T02:35:19.803Z,8.80
2019-03-23T02:37:49.002Z,8.60
2019-03-23T02:40:17.870Z,8.50
2019-03-23T02:42:46.634Z,8.30
2019-03-23T02:45:15.686Z,8.50
2019-03-23T02:47:44.491Z,8.60
2019-03-23T02:50:14.650Z,8.60
2019-03-23T02:52:43.641Z,8.60
2019-03-23T02:55:12.680Z,8.40
2019-03-23T02:57:41.699Z,8.50
2019-03-23T03:00:11.940Z,8.40
2019-03-23T03:02:40.871Z,8.50
2019-03-23T03:05:10.097Z,8.20
2019-03-23T03:07:42.520Z,8.10
2019-03-23T03:10:10.651Z,7.90
2019-03-23T03:12:39.957Z,7.80
2019-03-23T03:15:10.468Z,7.90
2019-03-23T03:17:39.356Z,8.00
2019-03-23T03:20:08.633Z,7.90
2019-03-23T03:22:38.510Z,8.00
2019-03-23T03:25:07.466Z,7.70
2019-03-23T03:27:36.334Z,7.30
2019-03-23T03:30:06.222Z,7.20
2019-03-23T03:32:35.029Z,7.40
2019-03-23T03:35:03.946Z,7.30
2019-03-23T03:37:32.720Z,7.10
2019-03-23T03:40:01.487Z,7.00
2019-03-23T03:42:31.381Z,7.10
2019-03-23T03:45:00.431Z,7.30
2019-03-23T03:47:29.643Z,7.50
2019-03-23T03:49:58.416Z,7.70
2019-03-23T03:52:28.042Z,7.50
2019-03-23T03:54:56.935Z,7.20
2019-03-23T03:57:25.742Z,7.20
2019-03-23T03:59:54.509Z,7.00
2019-03-23T04:02:23.489Z,7.00
2019-03-23T04:04:52.285Z,7.00
2019-03-23T04:07:21.081Z,7.10
2019-03-23T04:09:49.988Z,6.60
2019-03-23T04:12:18.860Z,7.10
2019-03-23T04:14:48.065Z,7.00
2019-03-23T04:17:16.923Z,7.00
2019-03-23T04:19:45.826Z,6.50
2019-03-23T04:22:14.789Z,6.50
2019-03-23T04:24:43.622Z,6.60
2019-03-23T04:27:12.499Z,6.90
2019-03-23T04:29:41.282Z,7.00
2019-03-23T04:32:10.102Z,6.70
2019-03-23T04:34:38.977Z,6.70
2019-03-23T04:37:07.834Z,6.50
2019-03-23T04:39:36.671Z,6.40
2019-03-23T04:42:05.552Z,6.30
2019-03-23T04:44:34.541Z,6.60
2019-03-23T04:47:03.439Z,6.60
2019-03-23T04:49:32.265Z,6.60
2019-03-23T04:52:01.147Z,6.90
2019-03-23T04:54:29.962Z,6.60
2019-03-23T04:56:58.712Z,6.50
2019-03-23T04:59:27.484Z,6.60
2019-03-23T05:01:56.261Z,6.20
2019-03-23T05:04:24.976Z,6.40
2019-03-23T05:06:53.734Z,6.40
2019-03-23T05:09:22.461Z,6.50
2019-03-23T05:11:51.533Z,6.20
2019-03-23T05:14:20.294Z,6.40
2019-03-23T05:16:49.009Z,6.80
2019-03-23T05:19:17.799Z,6.70
2019-03-23T05:21:46.485Z,6.40
2019-03-23T05:24:15.175Z,6.40
2019-03-23T05:26:43.874Z,6.50
2019-03-23T05:29:12.592Z,6.40
2019-03-23T05:31:42.227Z,6.00
2019-03-23T05:34:11.016Z,6.10
2019-03-23T05:36:41.019Z,6.30
2019-03-23T05:39:09.744Z,6.20
2019-03-23T05:41:38.586Z,6.00
2019-03-23T05:44:07.365Z,6.30
2019-03-23T05:46:36.206Z,6.40
2019-03-23T05:49:05.175Z,6.50
2019-03-23T05:51:33.977Z,6.40
2019-03-23T05:54:02.785Z,6.70
2019-03-23T05:56:31.469Z,6.90
2019-03-23T05:59:00.180Z,6.80
2019-03-23T06:01:28.916Z,6.90
2019-03-23T06:03:57.669Z,7.10
2019-03-23T06:06:26.412Z,7.00
2019-03-23T06:08:55.650Z,6.90
2019-03-23T06:11:24.396Z,7.00
2019-03-23T06:13:53.270Z,7.30
2019-03-23T06:16:22.058Z,7.50
2019-03-23T06:18:50.829Z,7.50
2019-03-23T06:21:19.939Z,7.20
2019-03-23T06:23:48.952Z,7.80
2019-03-23T06:26:17.701Z,7.20
2019-03-23T06:28:46.520Z,6.80
2019-03-23T06:31:15.403Z,7.90
2019-03-23T06:33:44.107Z,8.30
2019-03-23T06:36:12.893Z,8.00
2019-03-23T06:38:41.679Z,8.50
2019-03-23T06:41:11.405Z,8.20
2019-03-23T06:43:40.295Z,8.10
2019-03-23T06:46:09.268Z,8.40
2019-03-23T06:48:38.241Z,8.80
2019-03-23T06:51:07.141Z,9.00
2019-03-23T06:53:36.009Z,8.80
2019-03-23T06:56:05.041Z,8.90
2019-03-23T06:58:33.905Z,9.40
2019-03-23T07:01:02.732Z,10.00
2019-03-23T07:03:31.824Z,10.30
2019-03-23T07:06:00.697Z,9.90
2019-03-23T07:08:32.433Z,10.10
2019-03-23T07:11:01.265Z,9.90
2019-03-23T07:13:30.177Z,10.30
2019-03-23T07:15:59.107Z,10.40
2019-03-23T07:18:28.411Z,10.20
2019-03-23T07:20:57.248Z,10.50
2019-03-23T07:23:26.102Z,11.20
2019-03-23T07:25:54.934Z,10.60
2019-03-23T07:28:24.681Z,11.20
2019-03-23T07:30:53.817Z,11.20
2019-03-23T07:33:22.893Z,11.60
2019-03-23T07:35:51.814Z,11.70
2019-03-23T07:38:20.791Z,12.00
2019-03-23T07:40:49.659Z,11.50
2019-03-23T07:43:18.777Z,12.00
2019-03-23T07:45:47.643Z,11.90
2019-03-23T07:48:16.593Z,12.70
2019-03-23T07:50:45.451Z,12.60
2019-03-23T07:53:14.576Z,12.20
2019-03-23T07:55:43.963Z,12.20
2019-03-23T07:58:13.158Z,11.70
2019-03-23T08:00:43.125Z,12.60
2019-03-23T08:03:12.022Z,13.00
2019-03-23T08:05:42.204Z,12.70
2019-03-23T08:08:11.185Z,13.30
2019-03-23T08:10:40.779Z,13.30
2019-03-23T08:13:09.711Z,12.20
2019-03-23T08:15:38.752Z,12.80
2019-03-23T08:18:08.107Z,13.10
2019-03-23T08:20:36.932Z,12.20
2019-03-23T08:23:05.953Z,12.30
2019-03-23T08:25:35.013Z,12.80
2019-03-23T08:28:04.198Z,13.20
2019-03-23T08:30:33.257Z,13.50
2019-03-23T08:33:02.121Z,14.10
2019-03-23T08:35:31.167Z,14.10
2019-03-23T08:37:59.989Z,14.30
2019-03-23T08:40:28.888Z,14.20
2019-03-23T08:42:57.907Z,13.80
2019-03-23T08:45:26.755Z,14.60
2019-03-23T08:47:55.633Z,14.70
2019-03-23T08:50:24.439Z,14.20
2019-03-23T08:52:53.835Z,13.40
2019-03-23T08:55:22.859Z,14.10
2019-03-23T08:57:52.854Z,14.60
2019-03-23T09:00:21.663Z,15.10
2019-03-23T09:02:50.479Z,15.10
2019-03-23T09:05:19.306Z,15.10
2019-03-23T09:07:48.079Z,15.10
2019-03-23T09:10:16.973Z,16.00
2019-03-23T09:12:45.995Z,16.20
2019-03-23T09:15:15.055Z,16.00
2019-03-23T09:17:44.106Z,15.50
2019-03-23T09:20:13.343Z,16.00
2019-03-23T09:22:42.304Z,16.60
2019-03-23T09:25:11.327Z,16.90
2019-03-23T09:27:40.169Z,16.20
2019-03-23T09:30:09.652Z,16.40
2019-03-23T09:32:38.921Z,15.80
2019-03-23T09:35:08.703Z,15.70
2019-03-23T09:37:38.306Z,16.00
2019-03-23T09:40:10.957Z,16.80
2019-03-23T09:42:38.693Z,15.60
2019-03-23T09:45:07.984Z,16.70
2019-03-23T09:47:37.040Z,16.70
2019-03-23T09:50:07.080Z,15.60
2019-03-23T09:52:36.805Z,16.60
2019-03-23T09:55:07.590Z,16.20
2019-03-23T09:57:37.604Z,17.40
2019-03-23T10:00:07.852Z,16.90
2019-03-23T10:02:36.936Z,16.90
2019-03-23T10:05:07.401Z,17.40
2019-03-23T10:07:36.189Z,16.70
2019-03-23T10:10:05.865Z,16.70
2019-03-23T10:12:34.764Z,15.40
2019-03-23T10:15:10.841Z,16.20
2019-03-23T10:17:42.950Z,17.20
2019-03-23T10:20:14.918Z,17.90
2019-03-23T10:22:44.003Z,16.70
2019-03-23T10:25:13.184Z,17.00
2019-03-23T10:27:42.172Z,18.20
2019-03-23T10:30:12.282Z,18.20
2019-03-23T10:32:42.253Z,17.40
2019-03-23T10:35:12.814Z,16.70
2019-03-23T10:37:41.802Z,18.30
2019-03-23T10:40:11.740Z,18.10
2019-03-23T10:42:40.566Z,17.40
2019-03-23T10:45:10.257Z,18.30
2019-03-23T10:47:39.289Z,18.20
2019-03-23T10:50:08.813Z,18.80
2019-03-23T10:52:37.831Z,18.30
2019-03-23T10:55:07.167Z,17.60
2019-03-23T10:57:36.062Z,18.70
2019-03-23T11:00:05.911Z,17.40
2019-03-23T11:05:39.765Z,17.10
2019-03-23T11:08:08.756Z,17.50
2019-03-23T11:10:41.965Z,17.20
2019-03-23T11:13:10.394Z,18.10
2019-03-23T11:15:39.246Z,19.10
2019-03-23T11:18:08.082Z,19.30
2019-03-23T11:20:36.874Z,18.90
2019-03-23T11:23:05.643Z,18.90
2019-03-23T11:25:35.336Z,18.40
2019-03-23T11:28:04.264Z,19.30
2019-03-23T11:30:33.045Z,18.50
2019-03-23T11:33:01.867Z,18.50
2019-03-23T11:35:30.917Z,17.90
2019-03-23T11:38:02.183Z,19.30
2019-03-23T11:40:31.239Z,19.60
2019-03-23T11:43:00.107Z,19.50
2019-03-23T11:45:28.896Z,18.50
2019-03-23T11:47:57.842Z,19.00
2019-03-23T11:50:27.935Z,19.70
2019-03-23T11:52:56.866Z,18.70
2019-03-23T11:55:27.487Z,18.10
2019-03-23T11:57:56.294Z,19.10
2019-03-23T12:00:25.169Z,19.20
2019-03-23T12:02:54.088Z,19.80
2019-03-23T12:05:23.185Z,19.00
2019-03-23T12:07:52.028Z,19.90
2019-03-23T12:10:21.712Z,18.80
2019-03-23T12:12:50.457Z,20.70
2019-03-23T12:15:21.567Z,20.80
2019-03-23T12:17:51.556Z,20.30
2019-03-23T12:20:20.352Z,20.30
2019-03-23T12:22:49.825Z,18.80
2019-03-23T12:25:19.670Z,20.40
2019-03-23T12:27:48.591Z,21.10
2019-03-23T12:30:17.662Z,18.60
2019-03-23T12:32:46.650Z,19.20
2019-03-23T12:35:15.545Z,18.70
2019-03-23T12:37:44.708Z,19.50
2019-03-23T12:40:14.365Z,19.00
2019-03-23T12:42:43.229Z,20.40
2019-03-23T12:45:12.285Z,20.60
2019-03-23T12:47:42.918Z,19.30
2019-03-23T12:50:25.445Z,19.60
2019-03-23T12:52:54.374Z,19.80
2019-03-23T12:55:23.070Z,19.40
2019-03-23T12:57:51.888Z,19.70
2019-03-23T13:00:20.686Z,20.10
2019-03-23T13:02:49.491Z,19.90
2019-03-23T13:05:18.292Z,20.30
2019-03-23T13:07:47.130Z,19.10
2019-03-23T13:10:16.094Z,20.00
2019-03-23T13:12:44.939Z,19.70
2019-03-23T13:15:15.934Z,20.90
2019-03-23T13:17:44.716Z,20.70
2019-03-23T13:20:14.567Z,19.50
2019-03-23T13:22:43.382Z,20.50
2019-03-23T13:25:13.030Z,20.60
2019-03-23T13:27:42.307Z,20.00
2019-03-23T13:30:11.572Z,21.00
2019-03-23T13:32:40.582Z,21.40
2019-03-23T13:35:09.631Z,22.00
2019-03-23T13:37:38.420Z,20.80
2019-03-23T13:40:08.612Z,21.20
2019-03-23T13:42:37.550Z,21.00
2019-03-23T13:45:08.621Z,21.00
2019-03-23T13:47:37.564Z,20.90
2019-03-23T13:50:07.001Z,19.80
2019-03-23T13:52:35.923Z,21.10
2019-03-23T13:55:06.117Z,19.70
2019-03-23T13:57:35.843Z,21.40
2019-03-23T14:00:05.595Z,21.80
2019-03-23T14:02:35.622Z,21.70
2019-03-23T14:05:04.643Z,21.70
2019-03-23T14:07:34.255Z,22.30
2019-03-23T14:10:03.145Z,22.20
2019-03-23T14:12:32.595Z,21.60
2019-03-23T14:15:01.334Z,21.40
2019-03-23T14:17:30.191Z,21.80
2019-03-23T14:19:58.942Z,20.90
2019-03-23T14:22:27.975Z,21.30
2019-03-23T14:24:56.736Z,22.90
2019-03-23T14:27:25.482Z,21.90
2019-03-23T14:29:54.352Z,22.30
2019-03-23T14:32:23.211Z,22.90
2019-03-23T14:34:52.162Z,23.80
2019-03-23T14:37:20.879Z,24.30
2019-03-23T14:39:49.861Z,22.60
2019-03-23T14:42:18.697Z,23.30
2019-03-23T14:44:47.505Z,21.80
2019-03-23T14:47:16.208Z,23.10
2019-03-23T14:49:45.030Z,20.90
2019-03-23T14:52:13.922Z,19.90
2019-03-23T14:54:42.674Z,19.80
2019-03-23T14:57:11.421Z,21.00
2019-03-23T14:59:40.331Z,19.50
2019-03-23T15:02:09.124Z,20.00
2019-03-23T15:04:38.943Z,20.90
2019-03-23T15:07:07.855Z,21.20
2019-03-23T15:09:36.705Z,20.00
2019-03-23T15:12:14.674Z,21.20
2019-03-23T15:14:36.240Z,20.10
2019-03-23T15:17:05.046Z,20.10
2019-03-23T15:19:33.823Z,19.70
2019-03-23T15:22:02.636Z,20.80
2019-03-23T15:24:31.466Z,20.30
2019-03-23T15:27:01.006Z,20.10
2019-03-23T15:29:29.791Z,19.90
2019-03-23T15:31:58.466Z,19.70
2019-03-23T15:34:29.696Z,17.60
2019-03-23T15:37:01.186Z,18.20
2019-03-23T15:39:29.979Z,18.90
2019-03-23T15:41:58.736Z,18.60
2019-03-23T15:44:27.536Z,20.20
2019-03-23T15:46:56.287Z,18.00
2019-03-23T15:49:24.992Z,17.30
2019-03-23T15:51:53.804Z,17.60
2019-03-23T15:54:22.641Z,18.20
2019-03-23T15:56:51.676Z,17.90
2019-03-23T15:59:20.678Z,17.40
2019-03-23T16:01:49.483Z,16.90
2019-03-23T16:04:18.228Z,17.80
2019-03-23T16:06:46.990Z,16.00
2019-03-23T16:09:15.964Z,16.50
2019-03-23T16:11:44.909Z,17.10
2019-03-23T16:14:13.814Z,16.40
2019-03-23T16:16:42.825Z,15.90
2019-03-23T16:19:11.692Z,16.20
2019-03-23T16:21:40.686Z,16.80
2019-03-23T16:24:09.476Z,15.90
2019-03-23T16:26:38.266Z,16.40
2019-03-23T16:29:07.041Z,16.60
2019-03-23T16:31:35.788Z,15.70
2019-03-23T16:34:05.546Z,16.00
2019-03-23T16:36:35.659Z,15.70
2019-03-23T16:39:05.814Z,15.30
2019-03-23T16:41:34.627Z,15.70
2019-03-23T16:44:04.300Z,14.40
2019-03-23T16:46:33.090Z,14.60
2019-03-23T16:49:01.916Z,14.30
2019-03-23T16:51:30.764Z,14.60
2019-03-23T16:53:59.607Z,14.70
2019-03-23T16:56:28.330Z,14.80
2019-03-23T16:58:57.214Z,15.30
2019-03-23T17:01:26.107Z,15.00
2019-03-23T17:03:55.164Z,15.00
2019-03-23T17:06:23.931Z,14.20
2019-03-23T17:08:52.955Z,14.60
2019-03-23T17:11:21.842Z,14.90
2019-03-23T17:13:51.058Z,14.10
2019-03-23T17:16:19.829Z,14.40
2019-03-23T17:18:48.705Z,14.30
2019-03-23T17:21:18.655Z,14.20
2019-03-23T17:23:47.498Z,14.10
2019-03-23T17:26:16.394Z,14.30
2019-03-23T17:28:45.350Z,13.70
2019-03-23T17:31:14.173Z,14.10
2019-03-23T17:33:43.014Z,13.80
2019-03-23T17:36:11.821Z,13.10
2019-03-23T17:38:40.672Z,13.90
2019-03-23T17:41:10.511Z,13.50
2019-03-23T17:43:40.812Z,13.60
2019-03-23T17:46:09.867Z,13.70
2019-03-23T17:48:38.825Z,13.30
2019-03-23T17:51:07.801Z,13.70
2019-03-23T17:53:37.742Z,13.80
2019-03-23T17:56:06.617Z,13.40
2019-03-23T17:58:35.555Z,13.80
2019-03-23T18:01:05.526Z,13.70
2019-03-23T18:03:34.534Z,13.50
2019-03-23T18:06:03.490Z,13.80
2019-03-23T18:08:32.546Z,13.60
2019-03-23T18:11:01.519Z,13.60
2019-03-23T18:13:30.617Z,13.40
2019-03-23T18:16:00.529Z,13.10
2019-03-23T18:18:29.597Z,13.10
2019-03-23T18:20:58.518Z,13.50
2019-03-23T18:23:27.395Z,13.50
2019-03-23T18:25:56.336Z,13.50
2019-03-23T18:28:26.146Z,13.50
2019-03-23T18:30:55.109Z,13.50
2019-03-23T18:33:23.936Z,13.00
2019-03-23T18:35:53.260Z,12.90
2019-03-23T18:38:22.220Z,13.40
2019-03-23T18:40:51.124Z,13.20
2019-03-23T18:43:27.401Z,13.20
2019-03-23T18:45:50.929Z,12.70
2019-03-23T18:48:19.825Z,13.20
2019-03-23T18:50:48.726Z,12.50
2019-03-23T18:53:17.568Z,13.00
2019-03-23T18:55:46.452Z,13.30
2019-03-23T18:58:15.315Z,13.30
2019-03-23T19:00:44.324Z,13.20
2019-03-23T19:03:15.103Z,13.20
2019-03-23T19:05:44.521Z,13.50
2019-03-23T19:08:13.349Z,13.40
2019-03-23T19:10:42.237Z,12.80
2019-03-23T19:13:12.292Z,12.30
2019-03-23T19:15:41.376Z,12.40
2019-03-23T19:18:10.140Z,12.20
2019-03-23T19:20:39.053Z,12.70
2019-03-23T19:23:08.342Z,12.50
2019-03-23T19:25:37.940Z,12.70
2019-03-23T19:28:06.975Z,13.20
2019-03-23T19:30:35.948Z,12.50
2019-03-23T19:33:06.326Z,12.90
2019-03-23T19:35:35.556Z,12.90
2019-03-23T19:38:04.881Z,12.20
2019-03-23T19:40:33.755Z,12.10
2019-03-23T19:43:02.955Z,11.80
2019-03-23T19:45:31.984Z,12.10
2019-03-23T19:48:00.861Z,12.40
2019-03-23T19:50:29.789Z,12.10
2019-03-23T19:52:58.606Z,11.90
2019-03-23T19:55:27.508Z,11.80
2019-03-23T19:57:56.387Z,11.50
2019-03-23T20:00:25.477Z,11.60
2019-03-23T20:02:54.374Z,11.70
2019-03-23T20:05:23.387Z,11.30
2019-03-23T20:07:52.384Z,11.50
2019-03-23T20:10:21.368Z,11.40
2019-03-23T20:12:50.281Z,11.50
2019-03-23T20:15:19.222Z,11.00
2019-03-23T20:17:48.203Z,11.00
2019-03-23T20:20:19.955Z,11.30
2019-03-23T20:22:49.162Z,11.50
2019-03-23T20:25:18.283Z,11.10
2019-03-23T20:27:47.241Z,11.20
2019-03-23T20:30:16.775Z,10.90
2019-03-23T20:32:45.990Z,10.90
2019-03-23T20:35:15.192Z,10.70
2019-03-23T20:37:44.293Z,11.00
2019-03-23T20:40:13.533Z,11.30
2019-03-23T20:42:45.851Z,11.50
2019-03-23T20:45:26.505Z,10.50
2019-03-23T20:47:55.585Z,11.20
2019-03-23T20:50:24.559Z,10.80
2019-03-23T20:52:54.130Z,11.00
2019-03-23T20:55:26.302Z,10.80
2019-03-23T20:57:55.535Z,10.60
2019-03-23T21:00:24.738Z,10.90
2019-03-23T21:02:53.991Z,10.80
2019-03-23T21:05:33.135Z,11.00
2019-03-23T21:07:53.943Z,11.40
2019-03-23T21:10:22.987Z,11.00
2019-03-23T21:12:52.344Z,11.10
2019-03-23T21:15:21.550Z,11.50
2019-03-23T21:17:51.622Z,10.80
2019-03-23T21:20:20.825Z,11.10
2019-03-23T21:22:49.995Z,10.70
2019-03-23T21:25:20.109Z,11.20
2019-03-23T21:27:48.975Z,11.30
2019-03-23T21:30:18.988Z,11.00
2019-03-23T21:32:48.049Z,10.40
2019-03-23T21:35:17.058Z,10.90
2019-03-23T21:37:46.026Z,11.10
2019-03-23T21:40:14.848Z,10.40
2019-03-23T21:42:43.726Z,10.30
2019-03-23T21:45:13.544Z,10.80
2019-03-23T21:47:42.552Z,10.50
2019-03-23T21:50:14.946Z,11.10
2019-03-23T21:52:44.086Z,10.20
2019-03-23T21:55:13.560Z,10.70
2019-03-23T21:57:42.781Z,10.80
2019-03-23T22:00:13.983Z,10.50
2019-03-23T22:02:43.031Z,10.50
2019-03-23T22:05:14.071Z,10.50
2019-03-23T22:07:43.142Z,10.90
2019-03-23T22:10:12.129Z,10.70
2019-03-23T22:12:41.112Z,11.00
2019-03-23T22:15:10.068Z,10.30
2019-03-23T22:17:39.076Z,10.60
2019-03-23T22:20:08.594Z,10.40
2019-03-23T22:22:37.576Z,10.70
2019-03-23T22:25:07.470Z,10.40
2019-03-23T22:27:37.759Z,11.00
2019-03-23T22:30:10.055Z,10.60
2019-03-23T22:32:39.364Z,10.60
2019-03-23T22:35:09.740Z,10.30
2019-03-23T22:37:38.702Z,10.30
2019-03-23T22:40:08.279Z,10.40
2019-03-23T22:42:37.185Z,10.40
2019-03-23T22:45:06.986Z,10.50
2019-03-23T22:47:35.939Z,10.20
2019-03-23T22:50:06.803Z,10.10
2019-03-23T22:52:35.667Z,10.20
2019-03-23T22:55:05.098Z,10.40
2019-03-23T22:57:33.902Z,10.50
2019-03-23T23:00:03.546Z,10.20
2019-03-23T23:02:34.947Z,9.90
2019-03-23T23:05:04.490Z,10.40
2019-03-23T23:07:33.516Z,10.70
2019-03-23T23:10:02.427Z,10.10
2019-03-23T23:12:31.350Z,10.20
2019-03-23T23:15:04.762Z,10.20
2019-03-23T23:17:31.245Z,9.90
2019-03-23T23:20:00.029Z,9.90
2019-03-23T23:22:28.836Z,10.10
2019-03-23T23:24:57.716Z,9.70
2019-03-23T23:27:26.512Z,10.20
2019-03-23T23:29:55.391Z,9.80
2019-03-23T23:32:24.199Z,9.90
2019-03-23T23:34:53.085Z,10.00
2019-03-23T23:37:21.971Z,9.90
2019-03-23T23:39:50.971Z,10.00
2019-03-23T23:42:19.848Z,10.20
2019-03-23T23:44:48.615Z,9.60
2019-03-23T23:47:17.639Z,9.70
2019-03-23T23:49:46.550Z,9.80
2019-03-23T23:52:15.428Z,10.00
2019-03-23T23:54:44.301Z,9.80
2019-03-23T23:57:13.067Z,9.70
2019-03-23T23:59:41.866Z,9.70
